sensor_id;sensor_type;location;lat;lon;timestamp;temperature;humidity
11894;DHT22;6006;49.696;8.662;2023-04-24T00:01:23;11.30;99.90
11894;DHT22;6006;49.696;8.662;2023-04-24T00:03:51;11.30;99.90
11894;DHT22;6006;49.696;8.662;2023-04-24T00:06:18;11.30;99.90
11894;DHT22;6006;49.696;8.662;2023-04-24T00:08:45;11.30;99.90
11894;DHT22;6006;49.696;8.662;2023-04-24T00:11:11;11.30;99.90
11894;DHT22;6006;49.696;8.662;2023-04-24T00:13:39;11.30;99.90
11894;DHT22;6006;49.696;8.662;2023-04-24T00:16:05;11.40;99.90
11894;DHT22;6006;49.696;8.662;2023-04-24T00:18:32;11.40;99.90
11894;DHT22;6006;49.696;8.662;2023-04-24T00:21:00;11.30;99.90
11894;DHT22;6006;49.696;8.662;2023-04-24T00:23:28;11.30;99.90
11894;DHT22;6006;49.696;8.662;2023-04-24T00:25:55;11.20;99.90
11894;DHT22;6006;49.696;8.662;2023-04-24T00:28:22;11.30;99.90
11894;DHT22;6006;49.696;8.662;2023-04-24T00:30:49;11.20;99.90
11894;DHT22;6006;49.696;8.662;2023-04-24T00:33:15;11.20;99.90
11894;DHT22;6006;49.696;8.662;2023-04-24T00:35:42;11.30;99.90
11894;DHT22;6006;49.696;8.662;2023-04-24T00:38:10;11.30;99.90
11894;DHT22;6006;49.696;8.662;2023-04-24T00:40:37;11.20;99.90
11894;DHT22;6006;49.696;8.662;2023-04-24T00:43:04;11.20;99.90
11894;DHT22;6006;49.696;8.662;2023-04-24T00:45:31;11.30;99.90
11894;DHT22;6006;49.696;8.662;2023-04-24T00:47:59;11.30;99.90
11894;DHT22;6006;49.696;8.662;2023-04-24T00:50:26;11.30;99.90
11894;DHT22;6006;49.696;8.662;2023-04-24T00:52:53;11.30;99.90
11894;DHT22;6006;49.696;8.662;2023-04-24T00:55:22;11.30;99.90
11894;DHT22;6006;49.696;8.662;2023-04-24T00:57:49;11.30;99.90
11894;DHT22;6006;49.696;8.662;2023-04-24T01:00:16;11.30;99.90
11894;DHT22;6006;49.696;8.662;2023-04-24T01:02:44;11.30;99.90
11894;DHT22;6006;49.696;8.662;2023-04-24T01:05:11;11.30;99.90
11894;DHT22;6006;49.696;8.662;2023-04-24T01:07:39;11.30;99.90
11894;DHT22;6006;49.696;8.662;2023-04-24T01:10:10;11.20;99.90
11894;DHT22;6006;49.696;8.662;2023-04-24T01:12:38;11.30;99.90
11894;DHT22;6006;49.696;8.662;2023-04-24T01:15:06;11.20;99.90
11894;DHT22;6006;49.696;8.662;2023-04-24T01:17:34;11.20;99.90
11894;DHT22;6006;49.696;8.662;2023-04-24T01:20:01;11.20;99.90
11894;DHT22;6006;49.696;8.662;2023-04-24T01:22:33;11.20;99.90
11894;DHT22;6006;49.696;8.662;2023-04-24T01:25:00;11.20;99.90
11894;DHT22;6006;49.696;8.662;2023-04-24T01:27:27;11.20;99.90
11894;DHT22;6006;49.696;8.662;2023-04-24T01:29:54;11.20;99.90
11894;DHT22;6006;49.696;8.662;2023-04-24T01:32:21;11.20;99.90
11894;DHT22;6006;49.696;8.662;2023-04-24T01:34:49;11.20;99.90
11894;DHT22;6006;49.696;8.662;2023-04-24T01:37:17;11.20;99.90
11894;DHT22;6006;49.696;8.662;2023-04-24T01:39:45;11.20;99.90
11894;DHT22;6006;49.696;8.662;2023-04-24T01:42:12;11.20;99.90
11894;DHT22;6006;49.696;8.662;2023-04-24T01:44:40;11.20;99.90
11894;DHT22;6006;49.696;8.662;2023-04-24T01:47:07;11.20;99.90
11894;DHT22;6006;49.696;8.662;2023-04-24T01:49:34;11.20;99.90
11894;DHT22;6006;49.696;8.662;2023-04-24T01:52:01;11.30;99.90
11894;DHT22;6006;49.696;8.662;2023-04-24T01:54:28;11.20;99.90
11894;DHT22;6006;49.696;8.662;2023-04-24T01:56:56;11.30;99.90
11894;DHT22;6006;49.696;8.662;2023-04-24T01:59:23;11.20;99.90
11894;DHT22;6006;49.696;8.662;2023-04-24T02:01:51;11.20;99.90
11894;DHT22;6006;49.696;8.662;2023-04-24T02:04:18;11.20;99.90
11894;DHT22;6006;49.696;8.662;2023-04-24T02:06:45;11.20;99.90
11894;DHT22;6006;49.696;8.662;2023-04-24T02:09:12;11.30;99.90
11894;DHT22;6006;49.696;8.662;2023-04-24T02:11:39;11.20;99.90
11894;DHT22;6006;49.696;8.662;2023-04-24T02:14:07;11.20;99.90
11894;DHT22;6006;49.696;8.662;2023-04-24T02:16:57;11.20;99.90
11894;DHT22;6006;49.696;8.662;2023-04-24T02:19:23;11.20;99.90
11894;DHT22;6006;49.696;8.662;2023-04-24T02:21:50;11.20;99.90
11894;DHT22;6006;49.696;8.662;2023-04-24T02:24:17;11.20;99.90
11894;DHT22;6006;49.696;8.662;2023-04-24T02:26:43;11.20;99.90
11894;DHT22;6006;49.696;8.662;2023-04-24T02:29:12;11.20;99.90
11894;DHT22;6006;49.696;8.662;2023-04-24T02:31:39;11.20;99.90
11894;DHT22;6006;49.696;8.662;2023-04-24T02:34:05;11.20;99.90
11894;DHT22;6006;49.696;8.662;2023-04-24T02:36:32;11.30;99.90
11894;DHT22;6006;49.696;8.662;2023-04-24T02:38:59;11.20;99.90
11894;DHT22;6006;49.696;8.662;2023-04-24T02:41:26;11.20;99.90
11894;DHT22;6006;49.696;8.662;2023-04-24T02:43:57;11.20;99.90
11894;DHT22;6006;49.696;8.662;2023-04-24T02:46:25;11.00;99.90
11894;DHT22;6006;49.696;8.662;2023-04-24T02:48:52;10.90;99.90
11894;DHT22;6006;49.696;8.662;2023-04-24T02:51:19;10.80;99.90
11894;DHT22;6006;49.696;8.662;2023-04-24T02:53:46;10.60;99.90
11894;DHT22;6006;49.696;8.662;2023-04-24T02:56:13;10.60;99.90
11894;DHT22;6006;49.696;8.662;2023-04-24T02:58:40;10.50;99.90
11894;DHT22;6006;49.696;8.662;2023-04-24T03:01:07;10.50;99.90
11894;DHT22;6006;49.696;8.662;2023-04-24T03:03:37;10.40;99.90
11894;DHT22;6006;49.696;8.662;2023-04-24T03:06:04;10.40;99.90
11894;DHT22;6006;49.696;8.662;2023-04-24T03:08:31;10.40;99.90
11894;DHT22;6006;49.696;8.662;2023-04-24T03:10:58;10.40;99.90
11894;DHT22;6006;49.696;8.662;2023-04-24T03:13:25;10.40;99.90
11894;DHT22;6006;49.696;8.662;2023-04-24T03:15:52;10.40;99.90
11894;DHT22;6006;49.696;8.662;2023-04-24T03:18:19;10.40;99.90
11894;DHT22;6006;49.696;8.662;2023-04-24T03:20:47;10.40;99.90
11894;DHT22;6006;49.696;8.662;2023-04-24T03:23:14;10.30;99.90
11894;DHT22;6006;49.696;8.662;2023-04-24T03:25:41;10.30;99.90
11894;DHT22;6006;49.696;8.662;2023-04-24T03:28:09;10.20;99.90
11894;DHT22;6006;49.696;8.662;2023-04-24T03:30:36;10.20;99.90
11894;DHT22;6006;49.696;8.662;2023-04-24T03:33:03;10.20;99.90
11894;DHT22;6006;49.696;8.662;2023-04-24T03:35:30;10.20;99.90
11894;DHT22;6006;49.696;8.662;2023-04-24T03:37:58;10.20;99.90
11894;DHT22;6006;49.696;8.662;2023-04-24T03:40:25;10.20;99.90
11894;DHT22;6006;49.696;8.662;2023-04-24T03:42:51;10.10;99.90
11894;DHT22;6006;49.696;8.662;2023-04-24T03:45:19;10.10;99.90
11894;DHT22;6006;49.696;8.662;2023-04-24T03:47:45;10.10;99.90
11894;DHT22;6006;49.696;8.662;2023-04-24T03:50:12;10.10;99.90
11894;DHT22;6006;49.696;8.662;2023-04-24T03:52:39;10.00;99.90
11894;DHT22;6006;49.696;8.662;2023-04-24T03:55:08;10.00;99.90
11894;DHT22;6006;49.696;8.662;2023-04-24T03:57:38;10.00;99.90
11894;DHT22;6006;49.696;8.662;2023-04-24T04:00:06;9.80;99.90
11894;DHT22;6006;49.696;8.662;2023-04-24T04:02:34;9.80;99.90
11894;DHT22;6006;49.696;8.662;2023-04-24T04:05:01;9.80;99.90
11894;DHT22;6006;49.696;8.662;2023-04-24T04:07:28;9.70;99.90
11894;DHT22;6006;49.696;8.662;2023-04-24T04:09:55;9.70;99.90
11894;DHT22;6006;49.696;8.662;2023-04-24T04:12:23;9.60;99.90
11894;DHT22;6006;49.696;8.662;2023-04-24T04:14:50;9.50;99.90
11894;DHT22;6006;49.696;8.662;2023-04-24T04:17:17;9.60;99.90
11894;DHT22;6006;49.696;8.662;2023-04-24T04:19:44;9.50;99.90
11894;DHT22;6006;49.696;8.662;2023-04-24T04:22:11;9.50;99.90
11894;DHT22;6006;49.696;8.662;2023-04-24T04:24:38;9.40;99.90
11894;DHT22;6006;49.696;8.662;2023-04-24T04:27:06;9.40;99.90
11894;DHT22;6006;49.696;8.662;2023-04-24T04:29:34;9.20;99.90
11894;DHT22;6006;49.696;8.662;2023-04-24T04:32:01;9.10;99.90
11894;DHT22;6006;49.696;8.662;2023-04-24T04:34:28;9.10;99.90
11894;DHT22;6006;49.696;8.662;2023-04-24T04:37:00;9.00;99.90
11894;DHT22;6006;49.696;8.662;2023-04-24T04:39:29;9.00;99.90
11894;DHT22;6006;49.696;8.662;2023-04-24T04:41:56;9.00;99.90
11894;DHT22;6006;49.696;8.662;2023-04-24T04:44:24;8.90;99.90
11894;DHT22;6006;49.696;8.662;2023-04-24T04:46:52;8.90;99.90
11894;DHT22;6006;49.696;8.662;2023-04-24T04:49:21;8.90;99.90
11894;DHT22;6006;49.696;8.662;2023-04-24T04:51:49;8.80;99.90
11894;DHT22;6006;49.696;8.662;2023-04-24T04:54:17;8.80;99.90
11894;DHT22;6006;49.696;8.662;2023-04-24T04:56:44;8.70;99.90
11894;DHT22;6006;49.696;8.662;2023-04-24T04:59:11;8.70;99.90
11894;DHT22;6006;49.696;8.662;2023-04-24T05:01:38;8.80;99.90
11894;DHT22;6006;49.696;8.662;2023-04-24T05:04:07;8.90;99.90
11894;DHT22;6006;49.696;8.662;2023-04-24T05:06:33;8.80;99.90
11894;DHT22;6006;49.696;8.662;2023-04-24T05:09:00;8.80;99.90
11894;DHT22;6006;49.696;8.662;2023-04-24T05:11:29;8.90;99.90
11894;DHT22;6006;49.696;8.662;2023-04-24T05:13:56;9.00;99.90
11894;DHT22;6006;49.696;8.662;2023-04-24T05:16:23;9.10;99.90
11894;DHT22;6006;49.696;8.662;2023-04-24T05:18:49;9.30;99.90
11894;DHT22;6006;49.696;8.662;2023-04-24T05:21:18;9.50;99.90
11894;DHT22;6006;49.696;8.662;2023-04-24T05:23:44;9.60;99.90
11894;DHT22;6006;49.696;8.662;2023-04-24T05:26:12;9.70;99.90
11894;DHT22;6006;49.696;8.662;2023-04-24T05:28:39;9.70;99.90
11894;DHT22;6006;49.696;8.662;2023-04-24T05:31:06;10.00;99.90
11894;DHT22;6006;49.696;8.662;2023-04-24T05:33:33;10.30;99.90
11894;DHT22;6006;49.696;8.662;2023-04-24T05:36:00;10.60;99.90
11894;DHT22;6006;49.696;8.662;2023-04-24T05:38:28;10.80;99.90
11894;DHT22;6006;49.696;8.662;2023-04-24T05:40:55;10.90;40.70
11894;DHT22;6006;49.696;8.662;2023-04-24T05:43:22;10.90;99.90
11894;DHT22;6006;49.696;8.662;2023-04-24T05:45:48;10.50;60.30
11894;DHT22;6006;49.696;8.662;2023-04-24T05:48:15;10.30;99.90
11894;DHT22;6006;49.696;8.662;2023-04-24T05:50:42;10.40;99.90
11894;DHT22;6006;49.696;8.662;2023-04-24T05:53:09;10.60;99.90
11894;DHT22;6006;49.696;8.662;2023-04-24T05:55:38;10.80;99.90
11894;DHT22;6006;49.696;8.662;2023-04-24T05:58:05;11.10;16.90
11894;DHT22;6006;49.696;8.662;2023-04-24T06:00:32;11.50;1.00
11894;DHT22;6006;49.696;8.662;2023-04-24T06:03:00;11.90;1.00
11894;DHT22;6006;49.696;8.662;2023-04-24T06:05:28;11.80;1.00
11894;DHT22;6006;49.696;8.662;2023-04-24T06:07:55;11.70;99.90
11894;DHT22;6006;49.696;8.662;2023-04-24T06:10:22;11.80;99.90
11894;DHT22;6006;49.696;8.662;2023-04-24T06:12:51;11.90;79.00
11894;DHT22;6006;49.696;8.662;2023-04-24T06:15:18;12.00;1.00
11894;DHT22;6006;49.696;8.662;2023-04-24T06:17:45;11.60;1.00
11894;DHT22;6006;49.696;8.662;2023-04-24T06:20:12;11.60;99.90
11894;DHT22;6006;49.696;8.662;2023-04-24T06:22:38;11.80;1.00
11894;DHT22;6006;49.696;8.662;2023-04-24T06:25:06;11.60;1.00
11894;DHT22;6006;49.696;8.662;2023-04-24T06:27:33;11.30;99.90
11894;DHT22;6006;49.696;8.662;2023-04-24T06:30:04;10.70;1.00
11894;DHT22;6006;49.696;8.662;2023-04-24T06:32:31;10.40;1.00
11894;DHT22;6006;49.696;8.662;2023-04-24T06:34:57;10.40;1.00
11894;DHT22;6006;49.696;8.662;2023-04-24T06:37:24;10.30;1.00
11894;DHT22;6006;49.696;8.662;2023-04-24T06:39:51;10.80;1.00
11894;DHT22;6006;49.696;8.662;2023-04-24T06:42:18;11.10;1.00
11894;DHT22;6006;49.696;8.662;2023-04-24T06:44:46;11.10;1.00
11894;DHT22;6006;49.696;8.662;2023-04-24T06:47:14;11.20;99.90
11894;DHT22;6006;49.696;8.662;2023-04-24T06:49:41;11.20;99.90
11894;DHT22;6006;49.696;8.662;2023-04-24T06:52:08;10.90;99.90
11894;DHT22;6006;49.696;8.662;2023-04-24T06:54:36;10.60;1.00
11894;DHT22;6006;49.696;8.662;2023-04-24T06:57:03;10.50;1.00
11894;DHT22;6006;49.696;8.662;2023-04-24T06:59:30;10.30;99.90
11894;DHT22;6006;49.696;8.662;2023-04-24T07:01:57;10.30;1.00
11894;DHT22;6006;49.696;8.662;2023-04-24T07:04:25;10.30;1.00
11894;DHT22;6006;49.696;8.662;2023-04-24T07:06:52;10.10;99.90
11894;DHT22;6006;49.696;8.662;2023-04-24T07:09:21;10.20;99.90
11894;DHT22;6006;49.696;8.662;2023-04-24T07:11:49;10.20;99.90
11894;DHT22;6006;49.696;8.662;2023-04-24T07:14:16;10.20;99.90
11894;DHT22;6006;49.696;8.662;2023-04-24T07:16:43;10.20;1.00
11894;DHT22;6006;49.696;8.662;2023-04-24T07:19:11;10.10;99.90
11894;DHT22;6006;49.696;8.662;2023-04-24T07:21:39;10.10;99.90
11894;DHT22;6006;49.696;8.662;2023-04-24T07:24:06;10.20;99.90
11894;DHT22;6006;49.696;8.662;2023-04-24T07:26:36;10.20;99.90
11894;DHT22;6006;49.696;8.662;2023-04-24T07:29:03;10.50;1.00
11894;DHT22;6006;49.696;8.662;2023-04-24T07:31:30;11.10;1.00
11894;DHT22;6006;49.696;8.662;2023-04-24T07:33:57;11.80;1.00
11894;DHT22;6006;49.696;8.662;2023-04-24T07:36:24;11.90;99.90
11894;DHT22;6006;49.696;8.662;2023-04-24T07:38:52;11.90;1.00
11894;DHT22;6006;49.696;8.662;2023-04-24T07:41:20;11.80;99.90
11894;DHT22;6006;49.696;8.662;2023-04-24T07:43:47;11.60;1.00
11894;DHT22;6006;49.696;8.662;2023-04-24T07:46:14;11.60;44.30
11894;DHT22;6006;49.696;8.662;2023-04-24T07:48:41;10.90;99.90
11894;DHT22;6006;49.696;8.662;2023-04-24T07:51:07;11.00;1.00
11894;DHT22;6006;49.696;8.662;2023-04-24T07:53:35;11.00;3.00
11894;DHT22;6006;49.696;8.662;2023-04-24T07:56:05;11.30;1.00
11894;DHT22;6006;49.696;8.662;2023-04-24T07:58:32;12.00;99.90
11894;DHT22;6006;49.696;8.662;2023-04-24T08:00:59;12.50;1.00
11894;DHT22;6006;49.696;8.662;2023-04-24T08:03:25;12.10;1.00
11894;DHT22;6006;49.696;8.662;2023-04-24T08:05:52;11.80;14.20
11894;DHT22;6006;49.696;8.662;2023-04-24T08:08:20;11.40;99.90
11894;DHT22;6006;49.696;8.662;2023-04-24T08:10:48;11.20;99.90
11894;DHT22;6006;49.696;8.662;2023-04-24T08:13:16;10.90;1.00
11894;DHT22;6006;49.696;8.662;2023-04-24T08:15:43;11.00;1.00
11894;DHT22;6006;49.696;8.662;2023-04-24T08:18:10;10.90;1.00
11894;DHT22;6006;49.696;8.662;2023-04-24T08:20:39;10.90;1.00
11894;DHT22;6006;49.696;8.662;2023-04-24T08:23:05;10.90;1.00
11894;DHT22;6006;49.696;8.662;2023-04-24T08:25:34;11.00;1.00
11894;DHT22;6006;49.696;8.662;2023-04-24T08:28:02;11.10;1.00
11894;DHT22;6006;49.696;8.662;2023-04-24T08:30:30;11.20;1.00
11894;DHT22;6006;49.696;8.662;2023-04-24T08:32:57;11.30;1.00
11894;DHT22;6006;49.696;8.662;2023-04-24T08:35:24;11.10;99.90
11894;DHT22;6006;49.696;8.662;2023-04-24T08:37:52;11.00;1.00
11894;DHT22;6006;49.696;8.662;2023-04-24T08:40:24;11.00;1.00
11894;DHT22;6006;49.696;8.662;2023-04-24T08:42:54;11.10;99.90
11894;DHT22;6006;49.696;8.662;2023-04-24T08:45:21;11.30;1.00
11894;DHT22;6006;49.696;8.662;2023-04-24T08:47:50;11.40;1.00
11894;DHT22;6006;49.696;8.662;2023-04-24T08:50:18;11.40;1.00
11894;DHT22;6006;49.696;8.662;2023-04-24T08:52:46;11.50;99.90
11894;DHT22;6006;49.696;8.662;2023-04-24T08:55:13;12.20;1.00
11894;DHT22;6006;49.696;8.662;2023-04-24T08:57:42;12.70;1.00
11894;DHT22;6006;49.696;8.662;2023-04-24T09:00:11;12.40;1.00
11894;DHT22;6006;49.696;8.662;2023-04-24T09:02:41;12.20;1.00
11894;DHT22;6006;49.696;8.662;2023-04-24T09:05:13;11.70;1.00
11894;DHT22;6006;49.696;8.662;2023-04-24T09:07:41;11.40;99.90
11894;DHT22;6006;49.696;8.662;2023-04-24T09:10:11;11.20;99.90
11894;DHT22;6006;49.696;8.662;2023-04-24T09:12:39;11.10;99.90
11894;DHT22;6006;49.696;8.662;2023-04-24T09:15:08;11.10;99.90
11894;DHT22;6006;49.696;8.662;2023-04-24T09:17:36;11.00;99.90
11894;DHT22;6006;49.696;8.662;2023-04-24T09:20:04;10.90;99.90
11894;DHT22;6006;49.696;8.662;2023-04-24T09:22:33;10.70;99.90
11894;DHT22;6006;49.696;8.662;2023-04-24T09:25:02;10.70;1.00
11894;DHT22;6006;49.696;8.662;2023-04-24T09:27:31;10.80;99.90
11894;DHT22;6006;49.696;8.662;2023-04-24T09:29:59;10.80;99.90
11894;DHT22;6006;49.696;8.662;2023-04-24T09:32:26;10.80;99.90
11894;DHT22;6006;49.696;8.662;2023-04-24T09:35:09;10.70;1.00
11894;DHT22;6006;49.696;8.662;2023-04-24T09:37:39;10.80;1.00
11894;DHT22;6006;49.696;8.662;2023-04-24T09:40:12;10.80;1.00
11894;DHT22;6006;49.696;8.662;2023-04-24T09:42:40;10.90;1.00
11894;DHT22;6006;49.696;8.662;2023-04-24T09:45:10;11.00;14.50
11894;DHT22;6006;49.696;8.662;2023-04-24T09:47:37;11.00;1.00
11894;DHT22;6006;49.696;8.662;2023-04-24T09:50:13;11.00;1.00
11894;DHT22;6006;49.696;8.662;2023-04-24T09:52:43;10.90;1.00
11894;DHT22;6006;49.696;8.662;2023-04-24T09:55:16;10.70;1.00
11894;DHT22;6006;49.696;8.662;2023-04-24T09:57:50;10.70;99.90
11894;DHT22;6006;49.696;8.662;2023-04-24T10:00:20;10.80;99.90
11894;DHT22;6006;49.696;8.662;2023-04-24T10:02:50;10.80;1.00
11894;DHT22;6006;49.696;8.662;2023-04-24T10:05:18;10.90;99.90
11894;DHT22;6006;49.696;8.662;2023-04-24T10:07:47;10.90;1.00
11894;DHT22;6006;49.696;8.662;2023-04-24T10:10:14;10.90;99.90
11894;DHT22;6006;49.696;8.662;2023-04-24T10:12:42;10.90;99.90
11894;DHT22;6006;49.696;8.662;2023-04-24T10:15:12;10.80;99.90
11894;DHT22;6006;49.696;8.662;2023-04-24T10:17:40;10.90;1.00
11894;DHT22;6006;49.696;8.662;2023-04-24T10:20:08;10.80;99.90
11894;DHT22;6006;49.696;8.662;2023-04-24T10:22:35;11.00;22.40
11894;DHT22;6006;49.696;8.662;2023-04-24T10:25:06;10.90;99.90
11894;DHT22;6006;49.696;8.662;2023-04-24T10:27:34;11.10;99.90
11894;DHT22;6006;49.696;8.662;2023-04-24T10:30:02;11.10;1.00
11894;DHT22;6006;49.696;8.662;2023-04-24T10:32:29;11.20;99.90
11894;DHT22;6006;49.696;8.662;2023-04-24T10:34:56;11.30;1.00
11894;DHT22;6006;49.696;8.662;2023-04-24T10:37:24;11.50;1.00
11894;DHT22;6006;49.696;8.662;2023-04-24T10:39:51;11.60;99.90
11894;DHT22;6006;49.696;8.662;2023-04-24T10:42:21;11.50;99.90
11894;DHT22;6006;49.696;8.662;2023-04-24T10:44:48;11.40;1.00
11894;DHT22;6006;49.696;8.662;2023-04-24T10:47:15;11.10;1.00
11894;DHT22;6006;49.696;8.662;2023-04-24T10:49:42;11.10;1.00
11894;DHT22;6006;49.696;8.662;2023-04-24T10:52:09;11.10;1.00
11894;DHT22;6006;49.696;8.662;2023-04-24T10:54:42;11.10;99.90
11894;DHT22;6006;49.696;8.662;2023-04-24T10:57:27;11.10;1.00
11894;DHT22;6006;49.696;8.662;2023-04-24T11:00:13;11.00;1.00
11894;DHT22;6006;49.696;8.662;2023-04-24T11:02:41;11.10;1.00
11894;DHT22;6006;49.696;8.662;2023-04-24T11:05:16;11.10;1.10
11894;DHT22;6006;49.696;8.662;2023-04-24T11:08:11;11.00;13.20
11894;DHT22;6006;49.696;8.662;2023-04-24T11:10:44;11.00;1.00
11894;DHT22;6006;49.696;8.662;2023-04-24T11:13:14;11.20;1.00
11894;DHT22;6006;49.696;8.662;2023-04-24T11:15:41;11.30;1.00
11894;DHT22;6006;49.696;8.662;2023-04-24T11:18:13;11.40;1.00
11894;DHT22;6006;49.696;8.662;2023-04-24T11:20:42;11.60;99.90
11894;DHT22;6006;49.696;8.662;2023-04-24T11:23:12;11.60;1.00
11894;DHT22;6006;49.696;8.662;2023-04-24T11:25:39;11.50;1.00
11894;DHT22;6006;49.696;8.662;2023-04-24T11:28:06;11.60;99.90
11894;DHT22;6006;49.696;8.662;2023-04-24T11:30:34;11.50;1.00
11894;DHT22;6006;49.696;8.662;2023-04-24T11:33:05;11.50;99.90
11894;DHT22;6006;49.696;8.662;2023-04-24T11:35:35;11.50;99.90
11894;DHT22;6006;49.696;8.662;2023-04-24T11:38:04;11.60;99.90
11894;DHT22;6006;49.696;8.662;2023-04-24T11:40:31;11.50;99.90
11894;DHT22;6006;49.696;8.662;2023-04-24T11:43:00;11.40;99.90
11894;DHT22;6006;49.696;8.662;2023-04-24T11:45:28;11.50;99.90
11894;DHT22;6006;49.696;8.662;2023-04-24T11:47:57;11.50;99.90
11894;DHT22;6006;49.696;8.662;2023-04-24T11:50:26;11.40;99.90
11894;DHT22;6006;49.696;8.662;2023-04-24T11:52:54;11.50;99.90
11894;DHT22;6006;49.696;8.662;2023-04-24T11:55:26;11.50;99.90
11894;DHT22;6006;49.696;8.662;2023-04-24T11:57:54;11.40;99.90
11894;DHT22;6006;49.696;8.662;2023-04-24T12:00:24;11.40;99.90
11894;DHT22;6006;49.696;8.662;2023-04-24T12:02:52;11.50;99.90
11894;DHT22;6006;49.696;8.662;2023-04-24T12:05:30;11.60;1.00
11894;DHT22;6006;49.696;8.662;2023-04-24T12:07:57;11.70;23.50
11894;DHT22;6006;49.696;8.662;2023-04-24T12:10:26;11.90;1.00
11894;DHT22;6006;49.696;8.662;2023-04-24T12:12:53;11.90;1.00
11894;DHT22;6006;49.696;8.662;2023-04-24T12:15:21;12.10;1.00
11894;DHT22;6006;49.696;8.662;2023-04-24T12:17:50;12.10;5.80
11894;DHT22;6006;49.696;8.662;2023-04-24T12:20:17;12.00;36.90
11894;DHT22;6006;49.696;8.662;2023-04-24T12:22:46;11.90;1.00
11894;DHT22;6006;49.696;8.662;2023-04-24T12:25:14;11.90;99.90
11894;DHT22;6006;49.696;8.662;2023-04-24T12:27:41;11.80;99.90
11894;DHT22;6006;49.696;8.662;2023-04-24T12:30:12;11.70;99.90
11894;DHT22;6006;49.696;8.662;2023-04-24T12:32:43;11.70;1.00
11894;DHT22;6006;49.696;8.662;2023-04-24T12:35:10;11.70;1.00
11894;DHT22;6006;49.696;8.662;2023-04-24T12:37:37;11.60;99.90
11894;DHT22;6006;49.696;8.662;2023-04-24T12:40:08;11.50;99.90
11894;DHT22;6006;49.696;8.662;2023-04-24T12:42:36;11.30;1.00
11894;DHT22;6006;49.696;8.662;2023-04-24T12:45:08;11.30;1.00
11894;DHT22;6006;49.696;8.662;2023-04-24T12:47:35;11.30;1.00
11894;DHT22;6006;49.696;8.662;2023-04-24T12:50:02;11.40;1.00
11894;DHT22;6006;49.696;8.662;2023-04-24T12:52:30;11.60;1.00
11894;DHT22;6006;49.696;8.662;2023-04-24T12:54:58;11.80;40.20
11894;DHT22;6006;49.696;8.662;2023-04-24T12:57:28;11.90;46.60
11894;DHT22;6006;49.696;8.662;2023-04-24T12:59:55;12.10;1.00
11894;DHT22;6006;49.696;8.662;2023-04-24T13:02:23;12.20;1.00
11894;DHT22;6006;49.696;8.662;2023-04-24T13:04:50;12.40;1.00
11894;DHT22;6006;49.696;8.662;2023-04-24T13:07:18;13.00;1.00
11894;DHT22;6006;49.696;8.662;2023-04-24T13:09:45;13.10;1.00
11894;DHT22;6006;49.696;8.662;2023-04-24T13:12:12;13.00;1.00
11894;DHT22;6006;49.696;8.662;2023-04-24T13:14:40;12.90;1.00
11894;DHT22;6006;49.696;8.662;2023-04-24T13:17:07;12.80;1.00
11894;DHT22;6006;49.696;8.662;2023-04-24T13:19:38;12.70;1.00
11894;DHT22;6006;49.696;8.662;2023-04-24T13:22:05;12.60;1.00
11894;DHT22;6006;49.696;8.662;2023-04-24T13:24:32;12.50;1.00
11894;DHT22;6006;49.696;8.662;2023-04-24T13:27:00;12.40;1.00
11894;DHT22;6006;49.696;8.662;2023-04-24T13:29:28;12.40;1.00
11894;DHT22;6006;49.696;8.662;2023-04-24T13:31:56;12.40;1.00
11894;DHT22;6006;49.696;8.662;2023-04-24T13:34:24;12.60;1.00
11894;DHT22;6006;49.696;8.662;2023-04-24T13:36:52;12.60;1.00
11894;DHT22;6006;49.696;8.662;2023-04-24T13:39:19;12.40;1.00
11894;DHT22;6006;49.696;8.662;2023-04-24T13:41:46;12.40;1.00
11894;DHT22;6006;49.696;8.662;2023-04-24T13:44:14;12.40;1.00
11894;DHT22;6006;49.696;8.662;2023-04-24T13:46:41;12.30;99.90
11894;DHT22;6006;49.696;8.662;2023-04-24T13:49:11;12.30;99.90
11894;DHT22;6006;49.696;8.662;2023-04-24T13:51:38;12.30;1.00
11894;DHT22;6006;49.696;8.662;2023-04-24T13:54:05;12.20;93.00
11894;DHT22;6006;49.696;8.662;2023-04-24T13:56:32;12.40;1.00
11894;DHT22;6006;49.696;8.662;2023-04-24T13:58:59;12.60;1.00
11894;DHT22;6006;49.696;8.662;2023-04-24T14:01:26;12.60;1.00
11894;DHT22;6006;49.696;8.662;2023-04-24T14:03:54;12.40;1.00
11894;DHT22;6006;49.696;8.662;2023-04-24T14:06:24;12.40;1.00
11894;DHT22;6006;49.696;8.662;2023-04-24T14:08:51;12.40;4.20
11894;DHT22;6006;49.696;8.662;2023-04-24T14:11:18;12.40;1.00
11894;DHT22;6006;49.696;8.662;2023-04-24T14:13:45;12.40;99.90
11894;DHT22;6006;49.696;8.662;2023-04-24T14:16:13;12.40;1.00
11894;DHT22;6006;49.696;8.662;2023-04-24T14:18:40;12.30;1.00
11894;DHT22;6006;49.696;8.662;2023-04-24T14:21:07;12.30;1.00
11894;DHT22;6006;49.696;8.662;2023-04-24T14:23:35;12.40;94.90
11894;DHT22;6006;49.696;8.662;2023-04-24T14:26:02;12.40;1.00
11894;DHT22;6006;49.696;8.662;2023-04-24T14:28:29;12.30;1.00
11894;DHT22;6006;49.696;8.662;2023-04-24T14:30:56;12.30;1.00
11894;DHT22;6006;49.696;8.662;2023-04-24T14:33:23;12.30;1.00
11894;DHT22;6006;49.696;8.662;2023-04-24T14:35:49;12.30;1.00
11894;DHT22;6006;49.696;8.662;2023-04-24T14:38:16;12.40;1.00
11894;DHT22;6006;49.696;8.662;2023-04-24T14:40:46;12.50;1.00
11894;DHT22;6006;49.696;8.662;2023-04-24T14:43:13;12.70;1.00
11894;DHT22;6006;49.696;8.662;2023-04-24T14:45:39;12.80;1.00
11894;DHT22;6006;49.696;8.662;2023-04-24T14:48:07;13.00;1.00
11894;DHT22;6006;49.696;8.662;2023-04-24T14:50:34;13.30;1.00
11894;DHT22;6006;49.696;8.662;2023-04-24T14:53:01;13.10;1.00
11894;DHT22;6006;49.696;8.662;2023-04-24T14:55:28;13.00;1.00
11894;DHT22;6006;49.696;8.662;2023-04-24T14:57:56;13.00;1.00
11894;DHT22;6006;49.696;8.662;2023-04-24T15:00:23;12.90;1.00
11894;DHT22;6006;49.696;8.662;2023-04-24T15:02:50;13.00;1.00
11894;DHT22;6006;49.696;8.662;2023-04-24T15:05:17;13.10;97.50
11894;DHT22;6006;49.696;8.662;2023-04-24T15:07:44;13.00;1.00
11894;DHT22;6006;49.696;8.662;2023-04-24T15:10:12;13.00;1.00
11894;DHT22;6006;49.696;8.662;2023-04-24T15:12:38;12.80;1.00
11894;DHT22;6006;49.696;8.662;2023-04-24T15:15:08;12.70;1.00
11894;DHT22;6006;49.696;8.662;2023-04-24T15:17:35;12.50;1.00
11894;DHT22;6006;49.696;8.662;2023-04-24T15:20:03;12.50;1.00
11894;DHT22;6006;49.696;8.662;2023-04-24T15:22:31;12.50;1.00
11894;DHT22;6006;49.696;8.662;2023-04-24T15:24:58;12.50;92.10
11894;DHT22;6006;49.696;8.662;2023-04-24T15:27:40;12.40;1.00
11894;DHT22;6006;49.696;8.662;2023-04-24T15:30:10;12.40;74.00
11894;DHT22;6006;49.696;8.662;2023-04-24T15:32:38;12.40;20.40
11894;DHT22;6006;49.696;8.662;2023-04-24T15:35:05;12.70;1.00
11894;DHT22;6006;49.696;8.662;2023-04-24T15:37:32;13.10;1.00
11894;DHT22;6006;49.696;8.662;2023-04-24T15:39:59;14.00;1.00
11894;DHT22;6006;49.696;8.662;2023-04-24T15:42:26;14.20;1.00
11894;DHT22;6006;49.696;8.662;2023-04-24T15:44:53;14.10;1.00
11894;DHT22;6006;49.696;8.662;2023-04-24T15:47:21;13.90;1.00
11894;DHT22;6006;49.696;8.662;2023-04-24T15:49:48;13.60;1.00
11894;DHT22;6006;49.696;8.662;2023-04-24T15:52:15;13.30;1.00
11894;DHT22;6006;49.696;8.662;2023-04-24T15:54:42;13.00;1.00
11894;DHT22;6006;49.696;8.662;2023-04-24T15:57:09;12.90;1.00
11894;DHT22;6006;49.696;8.662;2023-04-24T15:59:37;12.60;1.00